EGGP/LPL METAR and TAF weather

Enter ICAO airport designator
Station Type Date Time Source
EGGP METAR 2020/02/21 15:20 UTC NOAA

EGGP 211520Z 23019G29KT 9999 -RA BKN022 OVC024 10/07 Q1013


Station Type Date Time Source
EGGP Decoded METAR 2020/02/21 15:20 UTC NOAA

Liverpool Airport , United Kingdom (EGGP) 53-20N 002-51W
Feb 21, 2020 - 10:20 AM EST / 2020.02.21 1520 UTC
Wind: from the SW (230 degrees) at 22 MPH (19 KT) gusting to 33 MPH (29 KT):0
Visibility: greater than 7 mile(s):0
Sky conditions: overcast
Weather: light rain
Temperature: 50 F (10 C)
Dew Point: 44 F (7 C)
Relative Humidity: 81%
Pressure (altimeter): 29.91 in. Hg (1013 hPa)
ob: EGGP 211520Z 23019G29KT 9999 -RA BKN022 OVC024 10/07 Q1013
cycle: 15

Station Type Date Time Source
EGGP TAF 2020/02/21 12:42 UTC NOAA

TAF
AMD EGGP 211234Z 2112/2212 22015KT 9999 FEW015 SCT030
TEMPO 2112/2118 22022G34KT PROB30
TEMPO 2112/2121 8000 RA
BECMG 2121/2123 24020G32KT
TEMPO 2202/2205 25025G42KT 3000 +SHRA BKN010
TEMPO 2205/2209 25013KT
TEMPO 2205/2212 6000 SHRA

Example: see airport list